Time;durP1;ratioP1;P1;durP2;ratioP2;P2;SDS_P1;SDS_P2;PMS_P1;PMS_P2;Temp;Humidity;BMP_temperature;BMP_pressure;BME280_temperature;BME280_humidity;BME280_pressure;Samples;Min_cycle;Max_cycle;Signal;HPM_P1;HPM_P2
2021/12/08 00:00:18;;;;;;;4.53;1.75;;;;;;;4.47;64.21;98612.22;10353841;28;20421;-65
2021/12/08 00:05:21;;;;;;;2.88;1.67;;;;;;;4.64;63.61;98631.09;10355140;28;20125;-64
2021/12/08 00:15:38;;;;;;;3.53;1.77;;;;;;;4.64;63.51;98620.53;10352855;28;20069;-64
2021/12/08 00:20:41;;;;;;;3.58;1.95;;;;;;;4.60;63.44;98604.16;10353095;28;20049;-64
2021/12/08 00:25:42;;;;;;;3.92;1.88;;;;;;;4.70;63.58;98604.22;10352545;28;20126;-64
2021/12/08 00:30:47;;;;;;;2.13;1.55;;;;;;;4.72;64.06;98603.13;10352563;28;20808;-65
2021/12/08 00:35:51;;;;;;;5.22;1.58;;;;;;;4.73;63.62;98596.91;10350560;28;20568;-64
2021/12/08 00:40:53;;;;;;;2.90;1.20;;;;;;;4.76;62.38;98565.03;10334710;28;20073;-64
2021/12/08 00:45:55;;;;;;;2.28;1.60;;;;;;;4.78;62.73;98555.19;10352483;28;20049;-63
2021/12/08 00:50:56;;;;;;;6.60;1.70;;;;;;;4.78;63.67;98555.19;10352405;28;20123;-63
2021/12/08 00:55:58;;;;;;;2.60;1.63;;;;;;;4.66;64.59;98553.56;10350652;28;20046;-64
2021/12/08 01:00:59;;;;;;;2.47;1.20;;;;;;;4.64;64.90;98579.22;10351451;28;20058;-64
2021/12/08 01:06:01;;;;;;;2.72;1.20;;;;;;;4.66;65.37;98576.47;10354322;28;20626;-64
2021/12/08 01:11:09;;;;;;;3.17;1.38;;;;;;;4.71;65.00;98595.34;10342963;28;20069;-64
2021/12/08 01:16:11;;;;;;;2.25;1.35;;;;;;;4.67;65.17;98604.47;10332884;28;20084;-64
2021/12/08 01:21:13;;;;;;;3.15;1.52;;;;;;;4.80;65.39;98601.66;10333464;28;20052;-64
2021/12/08 01:26:15;;;;;;;2.35;1.20;;;;;;;4.82;65.35;98621.69;10350889;28;20049;-64
2021/12/08 01:31:17;;;;;;;2.08;1.40;;;;;;;4.83;66.76;98636.50;10350164;28;20046;-64
2021/12/08 01:36:18;;;;;;;2.97;0.90;;;;;;;4.78;66.02;98643.97;10350146;28;20042;-63
2021/12/08 01:41:22;;;;;;;2.83;1.75;;;;;;;4.81;67.00;98649.00;10350512;28;20046;-63
2021/12/08 01:46:24;;;;;;;1.93;1.00;;;;;;;4.70;67.46;98646.38;10350968;28;20070;-64
2021/12/08 01:51:26;;;;;;;2.25;1.50;;;;;;;4.55;68.62;98649.34;10349741;28;20050;-63
2021/12/08 01:56:28;;;;;;;2.28;1.23;;;;;;;4.47;70.21;98630.66;10333765;28;20133;-63
2021/12/08 02:01:34;;;;;;;2.10;1.17;;;;;;;4.27;70.69;98639.34;10333098;28;20049;-62
2021/12/08 02:06:44;;;;;;;2.55;0.75;;;;;;;4.14;72.44;98629.78;10334229;28;20112;-64
2021/12/08 02:11:47;;;;;;;1.58;1.10;;;;;;;4.11;72.79;98629.19;10349762;28;20129;-64
2021/12/08 02:16:51;;;;;;;1.60;1.33;;;;;;;4.15;73.63;98633.25;10332147;28;20468;-64
2021/12/08 02:21:53;;;;;;;4.13;0.93;;;;;;;3.98;74.39;98613.53;10348825;28;20136;-64
2021/12/08 02:26:55;;;;;;;2.53;0.80;;;;;;;4.01;74.90;98606.22;10347651;28;20562;-64
2021/12/08 02:46:40;;;;;;;2.20;0.70;;;;;;;4.10;74.83;98574.84;10348860;28;20060;-64
2021/12/08 02:52:52;;;;;;;1.60;1.00;;;;;;;4.04;75.78;98573.56;10270220;28;20133;-62
2021/12/08 02:57:55;;;;;;;2.40;1.33;;;;;;;3.97;75.81;98559.22;10269905;28;20141;-62
2021/12/08 03:02:59;;;;;;;2.88;1.63;;;;;;;4.07;76.53;98554.88;10266379;28;20471;-62
2021/12/08 03:08:02;;;;;;;2.88;1.15;;;;;;;4.06;76.58;98542.66;10259980;28;20463;-62
2021/12/08 03:13:04;;;;;;;2.20;0.90;;;;;;;4.07;77.06;98520.66;10270664;28;20062;-62
2021/12/08 03:18:06;;;;;;;2.97;1.45;;;;;;;3.93;77.13;98531.44;10251907;28;20150;-61
2021/12/08 03:23:11;;;;;;;3.45;1.27;;;;;;;4.03;77.64;98538.47;10279157;28;20126;-61
2021/12/08 03:28:18;;;;;;;2.22;1.25;;;;;;;4.03;77.01;98537.66;10270472;28;20109;-62
2021/12/08 03:33:20;;;;;;;2.70;1.08;;;;;;;4.04;76.79;98534.06;10270841;28;20038;-62
2021/12/08 03:38:22;;;;;;;3.28;1.50;;;;;;;4.04;77.11;98534.06;10267318;28;20078;-62
2021/12/08 03:43:24;;;;;;;2.42;1.38;;;;;;;4.15;77.36;98551.63;10250611;28;20138;-62
2021/12/08 03:48:38;;;;;;;2.83;2.10;;;;;;;4.18;77.05;98543.47;10251389;28;20123;-61
2021/12/08 03:53:39;;;;;;;3.35;1.25;;;;;;;4.21;77.09;98537.97;10251581;28;20673;-61
2021/12/08 03:58:41;;;;;;;1.77;1.17;;;;;;;4.12;76.62;98515.00;10267180;28;21522;-62
2021/12/08 04:03:49;;;;;;;2.80;1.48;;;;;;;4.27;76.93;98540.09;10251497;28;20053;-62
2021/12/08 04:08:55;;;;;;;3.38;1.40;;;;;;;4.28;76.36;98527.75;10257342;28;20062;-61
2021/12/08 04:14:06;;;;;;;1.77;1.00;;;;;;;4.46;76.66;98555.22;10281432;28;20058;-62
2021/12/08 04:19:09;;;;;;;3.53;0.93;;;;;;;4.46;76.65;98542.06;10267425;28;20141;-62
2021/12/08 04:24:14;;;;;;;2.50;1.17;;;;;;;4.42;76.61;98535.34;10268411;28;20058;-62
2021/12/08 04:29:17;;;;;;;1.95;1.20;;;;;;;4.47;76.63;98546.34;10270329;28;20523;-62
2021/12/08 04:34:24;;;;;;;1.73;1.17;;;;;;;4.49;76.65;98544.44;10274896;28;20074;-62
2021/12/08 04:39:38;;;;;;;2.13;1.50;;;;;;;4.60;76.69;98549.63;10274068;28;20431;-62
2021/12/08 04:44:53;;;;;;;3.60;1.20;;;;;;;4.62;76.95;98535.50;10274989;28;20133;-62
2021/12/08 05:06:49;;;;;;;2.67;1.92;;;;;;;4.72;76.88;98553.06;10258907;28;20047;-61
2021/12/08 05:12:01;;;;;;;3.40;1.60;;;;;;;4.75;76.76;98567.78;10270489;28;20150;-61
2021/12/08 05:17:11;;;;;;;2.15;1.65;;;;;;;4.79;76.98;98558.66;10257200;28;20090;-62
2021/12/08 05:22:18;;;;;;;3.03;1.65;;;;;;;4.85;76.83;98552.88;10267199;28;20066;-62
2021/12/08 05:27:34;;;;;;;4.10;1.90;;;;;;;4.88;76.70;98555.25;10287775;28;20744;-62
2021/12/08 05:32:36;;;;;;;3.17;1.65;;;;;;;4.90;76.67;98544.56;10273705;28;20073;-61
2021/12/08 05:37:38;;;;;;;1.85;1.42;;;;;;;4.94;76.54;98562.66;10273033;28;20143;-62
2021/12/08 05:42:41;;;;;;;2.03;1.83;;;;;;;4.95;76.91;98560.84;10257095;28;20134;-62
2021/12/08 05:47:45;;;;;;;3.00;1.67;;;;;;;4.91;76.51;98544.44;10272021;28;20126;-61
2021/12/08 05:52:47;;;;;;;3.80;2.60;;;;;;;4.96;76.54;98552.78;10273248;28;20149;-61
2021/12/08 05:57:48;;;;;;;3.15;1.80;;;;;;;4.97;76.65;98553.66;10233315;28;20065;-62
2021/12/08 06:02:51;;;;;;;2.10;1.98;;;;;;;4.95;76.66;98531.81;10246994;28;20058;-62
2021/12/08 06:07:53;;;;;;;2.80;1.80;;;;;;;5.01;76.58;98548.94;10249762;28;20145;-64
2021/12/08 06:12:56;;;;;;;1.90;1.60;;;;;;;4.99;76.82;98556.16;10252975;28;20046;-60
2021/12/08 06:17:57;;;;;;;2.88;1.63;;;;;;;4.86;76.47;98533.44;10240830;28;20671;-60
2021/12/08 06:22:59;;;;;;;3.15;2.08;;;;;;;5.01;76.70;98543.66;10250685;28;20046;-61
2021/12/08 06:28:01;;;;;;;3.88;1.77;;;;;;;4.98;76.83;98541.28;10248976;28;20735;-61
2021/12/08 06:33:03;;;;;;;1.92;1.60;;;;;;;4.92;76.68;98509.22;10244832;28;20050;-60
2021/12/08 06:38:05;;;;;;;2.20;1.70;;;;;;;5.07;76.57;98516.75;10247935;28;20053;-62
2021/12/08 06:43:10;;;;;;;3.50;1.67;;;;;;;5.00;76.87;98526.16;10249605;28;20550;-62
2021/12/08 06:48:15;;;;;;;6.22;3.50;;;;;;;5.04;76.74;98520.50;10243980;28;20608;-65
2021/12/08 06:53:19;;;;;;;5.95;2.28;;;;;;;5.19;76.52;98546.53;10246495;28;20533;-61
2021/12/08 06:58:25;;;;;;;5.85;2.92;;;;;;;5.21;76.24;98550.72;10250798;28;20043;-62
2021/12/08 07:03:41;;;;;;;5.97;2.30;;;;;;;5.25;75.98;98567.94;10251301;28;20522;-62
2021/12/08 07:08:52;;;;;;;3.72;1.85;;;;;;;5.26;76.44;98558.25;10252564;28;20114;-62
2021/12/08 07:13:56;;;;;;;3.13;1.90;;;;;;;5.25;75.57;98524.91;10246822;28;20057;-62
2021/12/08 07:19:10;;;;;;;4.45;2.03;;;;;;;5.17;75.85;98509.75;10250523;28;20047;-62
2021/12/08 07:24:15;;;;;;;4.00;2.45;;;;;;;5.13;75.15;98567.22;10254033;28;20058;-61
2021/12/08 07:29:23;;;;;;;2.45;1.83;;;;;;;5.17;75.58;98595.97;10256567;28;20055;-60
2021/12/08 07:34:26;;;;;;;2.17;1.73;;;;;;;5.14;75.49;98574.13;10250289;28;20054;-62
2021/12/08 07:39:32;;;;;;;4.82;2.72;;;;;;;5.15;75.67;98580.28;10250775;28;20071;-59
2021/12/08 07:44:34;;;;;;;3.60;2.10;;;;;;;5.21;76.24;98594.72;10253256;28;20061;-60
2021/12/08 07:49:45;;;;;;;3.85;2.03;;;;;;;4.91;75.90;98560.25;10253553;28;20075;-60
2021/12/08 07:54:48;;;;;;;3.60;2.03;;;;;;;5.19;76.13;98610.69;10251983;28;20486;-61
2021/12/08 07:59:54;;;;;;;3.35;2.05;;;;;;;5.18;76.44;98587.06;10248851;28;20491;-61
2021/12/08 08:04:59;;;;;;;4.47;2.10;;;;;;;5.29;76.18;98550.88;10255321;28;20126;-60
2021/12/08 08:10:01;;;;;;;5.43;3.05;;;;;;;5.38;76.15;98559.00;10260381;28;20519;-61
2021/12/08 08:15:10;;;;;;;3.45;2.42;;;;;;;5.32;75.98;98555.06;10257946;28;20082;-62
2021/12/08 08:20:29;;;;;;;3.38;2.03;;;;;;;5.38;75.71;98561.63;10253985;28;20053;-60
2021/12/08 08:25:35;;;;;;;5.05;2.83;;;;;;;5.33;76.44;98591.06;10259026;28;20057;-60
2021/12/08 08:30:41;;;;;;;3.10;2.40;;;;;;;5.39;75.93;98550.94;10258553;28;20054;-60
2021/12/08 08:35:50;;;;;;;4.43;2.30;;;;;;;5.46;76.28;98570.56;10256169;28;20119;-61
2021/12/08 08:40:56;;;;;;;3.83;2.25;;;;;;;5.36;75.77;98545.09;10256912;28;20050;-61
2021/12/08 08:46:04;;;;;;;5.18;2.70;;;;;;;5.46;75.98;98551.25;10256753;28;20062;-61
2021/12/08 08:51:21;;;;;;;4.30;3.00;;;;;;;5.59;75.71;98583.53;10249891;28;20521;-64
2021/12/08 08:56:32;;;;;;;3.55;2.33;;;;;;;5.59;75.93;98595.91;10255888;28;20039;-61
2021/12/08 09:01:40;;;;;;;3.08;2.58;;;;;;;5.60;74.84;98605.47;10255488;28;20047;-61
2021/12/08 09:06:45;;;;;;;3.88;2.20;;;;;;;5.73;75.30;98613.19;10258035;28;20061;-61
2021/12/08 09:11:53;;;;;;;3.10;2.20;;;;;;;5.80;74.76;98607.22;10259207;28;20408;-59
2021/12/08 09:16:59;;;;;;;4.43;2.42;;;;;;;5.81;74.10;98592.22;10255586;28;20055;-61
2021/12/08 09:22:09;;;;;;;3.17;2.20;;;;;;;5.81;74.58;98605.41;10257627;28;20476;-60
2021/12/08 09:27:31;;;;;;;4.38;2.58;;;;;;;5.88;74.38;98619.75;10256483;28;20047;-61
2021/12/08 09:32:42;;;;;;;2.95;2.47;;;;;;;5.91;74.29;98606.28;10259157;28;20073;-60
2021/12/08 09:37:49;;;;;;;3.13;2.30;;;;;;;5.98;73.96;98617.19;10250483;28;20043;-61
2021/12/08 09:42:54;;;;;;;4.65;2.50;;;;;;;5.88;73.98;98611.84;10252670;28;20043;-60
2021/12/08 09:47:56;;;;;;;3.35;2.35;;;;;;;5.89;74.56;98602.13;10249108;28;20066;-60
2021/12/08 09:52:57;;;;;;;3.45;2.80;;;;;;;5.98;74.00;98625.13;10255808;28;20055;-60
2021/12/08 09:57:59;;;;;;;5.43;3.17;;;;;;;5.91;74.03;98623.94;10254236;28;20073;-60
2021/12/08 10:03:04;;;;;;;4.60;2.60;;;;;;;6.11;74.18;98653.94;10254298;28;20189;-61
2021/12/08 10:08:07;;;;;;;6.30;2.97;;;;;;;6.12;74.16;98655.59;10250602;28;20717;-60
2021/12/08 10:13:10;;;;;;;6.63;3.15;;;;;;;6.17;74.11;98661.31;10242207;28;20506;-61
2021/12/08 10:18:12;;;;;;;5.53;3.00;;;;;;;6.16;74.02;98657.84;10253935;28;20503;-61
2021/12/08 10:23:23;;;;;;;8.00;3.53;;;;;;;6.15;74.25;98660.63;10248700;28;20137;-62
2021/12/08 10:28:32;;;;;;;7.40;3.95;;;;;;;6.23;74.70;98652.88;10254837;28;20105;-61
2021/12/08 10:33:49;;;;;;;6.53;3.40;;;;;;;6.29;74.68;98643.53;10253726;28;20058;-59
2021/12/08 10:38:50;;;;;;;5.85;3.50;;;;;;;6.35;74.71;98629.78;10251263;28;20043;-59
2021/12/08 10:44:01;;;;;;;6.20;3.42;;;;;;;6.30;73.88;98616.16;10252102;28;20064;-59
2021/12/08 10:54:33;;;;;;;7.00;4.07;;;;;;;6.47;74.46;98618.16;10252509;28;20804;-58
2021/12/08 10:59:59;;;;;;;4.43;3.70;;;;;;;6.46;73.85;98602.41;10252603;28;20063;-59
2021/12/08 11:05:00;;;;;;;5.05;3.45;;;;;;;6.53;74.31;98609.66;10248282;28;20055;-59
2021/12/08 11:10:17;;;;;;;8.57;4.43;;;;;;;6.64;74.11;98613.16;10233628;28;20070;-59
2021/12/08 11:15:22;;;;;;;4.78;3.90;;;;;;;6.61;73.57;98608.97;10252066;28;20049;-61
2021/12/08 11:20:30;;;;;;;7.25;3.95;;;;;;;6.63;74.16;98606.19;10251934;28;20046;-61
2021/12/08 11:25:39;;;;;;;5.95;3.83;;;;;;;6.51;73.56;98584.31;10250484;28;20047;-61
2021/12/08 11:30:40;;;;;;;6.28;4.00;;;;;;;6.59;73.99;98595.06;10252633;28;20053;-66
2021/12/08 11:35:42;;;;;;;6.90;3.72;;;;;;;6.62;74.37;98588.63;10260041;28;20217;-61
2021/12/08 11:40:43;;;;;;;4.82;3.53;;;;;;;6.59;74.26;98587.13;10261357;28;20523;-63
2021/12/08 11:45:44;;;;;;;5.47;4.13;;;;;;;6.60;74.29;98586.13;10261624;28;20704;-61
2021/12/08 11:50:46;;;;;;;7.72;4.75;;;;;;;6.47;74.70;98593.50;10256702;28;20047;-61
2021/12/08 11:55:48;;;;;;;6.32;4.50;;;;;;;6.45;74.40;98582.25;10257587;28;20519;-60
2021/12/08 12:00:52;;;;;;;6.47;4.43;;;;;;;6.49;74.60;98567.78;10263495;28;20472;-61
2021/12/08 12:05:54;;;;;;;5.13;4.63;;;;;;;6.62;74.67;98578.91;10262347;28;21170;-60
2021/12/08 12:10:56;;;;;;;5.10;4.00;;;;;;;6.67;74.56;98581.97;10264087;28;20195;-61
2021/12/08 12:15:58;;;;;;;5.80;4.20;;;;;;;6.78;74.01;98588.91;10262841;28;21279;-61
2021/12/08 12:21:36;;;;;;;6.60;4.82;;;;;;;6.92;74.18;98585.03;10262765;28;20079;-61
2021/12/08 12:26:53;;;;;;;7.13;4.57;;;;;;;7.01;73.52;98588.59;10262310;28;20550;-60
2021/12/08 12:32:17;;;;;;;5.93;4.30;;;;;;;7.02;74.00;98580.53;10260887;28;20072;-61
2021/12/08 12:37:33;;;;;;;5.80;3.88;;;;;;;7.06;73.92;98576.63;10255732;28;20130;-61
2021/12/08 12:42:53;;;;;;;5.30;4.30;;;;;;;7.04;74.45;98575.94;10260574;28;20057;-63
2021/12/08 12:48:21;;;;;;;6.45;4.32;;;;;;;7.02;74.07;98583.19;10257539;28;20186;-62
2021/12/08 12:53:49;;;;;;;11.20;5.90;;;;;;;7.14;74.13;98585.69;10257423;28;20266;-60
2021/12/08 12:58:52;;;;;;;7.70;5.32;;;;;;;7.21;74.37;98581.50;10255208;28;20138;-60
2021/12/08 13:03:55;;;;;;;8.35;5.53;;;;;;;7.18;74.40;98573.84;10254798;28;20503;-60
2021/12/08 13:08:57;;;;;;;8.93;6.63;;;;;;;7.17;74.62;98564.22;10247642;28;20042;-60
2021/12/08 13:13:58;;;;;;;10.18;6.28;;;;;;;7.06;75.21;98555.47;10254380;28;21305;-60
2021/12/08 13:19:02;;;;;;;8.68;5.60;;;;;;;7.20;75.15;98571.88;10255719;28;20054;-60
2021/12/08 13:24:05;;;;;;;7.28;5.63;;;;;;;7.24;74.89;98570.63;10249919;28;20173;-60
2021/12/08 13:29:21;;;;;;;10.02;8.63;;;;;;;7.13;75.43;98553.09;10256193;28;20055;-60
2021/12/08 13:34:24;;;;;;;10.75;8.05;;;;;;;7.23;75.86;98558.34;10248253;28;20058;-60
2021/12/08 13:39:28;;;;;;;12.15;8.35;;;;;;;7.14;76.17;98551.28;10261121;28;20051;-60
2021/12/08 13:44:54;;;;;;;12.07;8.70;;;;;;;7.15;76.40;98545.00;10256232;28;20058;-62
2021/12/08 13:50:06;;;;;;;11.70;9.68;;;;;;;7.18;76.35;98550.03;10253716;28;20916;-60
2021/12/08 13:55:07;;;;;;;11.27;10.07;;;;;;;7.14;76.40;98546.81;10253774;28;20137;-61
2021/12/08 14:00:09;;;;;;;10.93;9.45;;;;;;;7.12;76.92;98542.66;10246543;28;20050;-59
2021/12/08 14:05:29;;;;;;;12.23;9.52;;;;;;;7.03;77.11;98524.00;10253201;28;20051;-60
2021/12/08 14:10:38;;;;;;;12.32;8.25;;;;;;;7.07;76.80;98533.34;10254402;28;21316;-60
2021/12/08 14:15:39;;;;;;;11.48;8.13;;;;;;;7.08;77.11;98537.63;10253786;28;20141;-60
2021/12/08 14:20:53;;;;;;;10.93;8.40;;;;;;;7.06;76.99;98531.66;10252406;28;20139;-61
2021/12/08 14:26:07;;;;;;;11.57;8.10;;;;;;;7.08;76.77;98536.81;10252040;28;20038;-61
2021/12/08 14:31:15;;;;;;;11.52;8.75;;;;;;;7.15;76.58;98532.59;10252372;28;20100;-60
2021/12/08 14:36:24;;;;;;;10.18;7.90;;;;;;;7.14;76.85;98545.97;10252009;28;20043;-59
2021/12/08 14:41:30;;;;;;;8.88;7.30;;;;;;;7.15;76.97;98540.53;10252754;28;20059;-59
2021/12/08 14:46:32;;;;;;;8.77;7.55;;;;;;;7.18;77.09;98544.72;10252770;28;20349;-61
2021/12/08 14:51:35;;;;;;;9.65;7.28;;;;;;;7.19;76.84;98570.19;10251871;28;20206;-61
2021/12/08 14:56:37;;;;;;;10.43;8.50;;;;;;;7.16;77.40;98567.84;10248809;28;20134;-61
2021/12/08 15:01:39;;;;;;;8.90;7.78;;;;;;;7.18;77.48;98569.38;10245461;28;20710;-62
2021/12/08 15:06:55;;;;;;;10.10;7.78;;;;;;;7.13;77.29;98568.13;10250152;28;20145;-60
2021/12/08 15:11:59;;;;;;;10.65;7.70;;;;;;;7.16;77.56;98589.84;10246771;28;20066;-59
2021/12/08 15:17:00;;;;;;;12.27;9.00;;;;;;;7.23;77.34;98595.41;10252897;28;20058;-59
2021/12/08 15:22:09;;;;;;;7.93;7.13;;;;;;;7.27;77.21;98594.16;10248798;28;20638;-60
2021/12/08 15:27:14;;;;;;;8.85;7.38;;;;;;;7.32;77.23;98602.47;10243963;28;20742;-60
2021/12/08 15:32:15;;;;;;;12.80;7.25;;;;;;;7.32;77.10;98599.84;10252612;28;20043;-62
2021/12/08 15:37:17;;;;;;;11.77;7.35;;;;;;;7.34;76.79;98600.53;10251924;28;20507;-61
2021/12/08 15:42:18;;;;;;;10.93;7.47;;;;;;;7.39;76.55;98598.28;10248032;28;20095;-58
2021/12/08 15:47:20;;;;;;;9.85;7.88;;;;;;;7.40;76.87;98605.25;10255504;28;20070;-58
2021/12/08 15:52:24;;;;;;;8.98;7.22;;;;;;;7.40;76.55;98604.41;10250299;28;20066;-59
2021/12/08 15:57:28;;;;;;;8.35;7.25;;;;;;;7.36;76.52;98593.28;10251551;28;20772;-59
2021/12/08 16:02:30;;;;;;;8.80;7.35;;;;;;;7.37;76.45;98613.50;10251140;28;20383;-61
2021/12/08 16:07:34;;;;;;;9.45;7.75;;;;;;;7.33;76.59;98604.16;10249550;28;20047;-60
2021/12/08 16:12:36;;;;;;;8.70;7.80;;;;;;;7.29;76.54;98608.06;10245098;28;20150;-60
2021/12/08 16:17:37;;;;;;;10.85;8.27;;;;;;;7.26;76.70;98608.34;10247307;28;20053;-61
2021/12/08 16:22:40;;;;;;;12.95;8.30;;;;;;;7.26;76.79;98603.06;10251309;28;20046;-62
2021/12/08 16:27:41;;;;;;;13.13;8.15;;;;;;;7.28;76.82;98601.13;10256881;28;20485;-61
2021/12/08 16:32:43;;;;;;;11.60;7.93;;;;;;;7.37;76.45;98616.13;10258162;28;20058;-65
2021/12/08 16:37:44;;;;;;;9.35;7.90;;;;;;;7.37;76.87;98626.72;10252412;28;20586;-61
2021/12/08 16:43:03;;;;;;;13.52;11.13;;;;;;;7.31;76.98;98631.75;10257060;28;20053;-61
2021/12/08 16:48:09;;;;;;;12.20;10.57;;;;;;;7.29;77.36;98633.72;10257788;28;20051;-61
2021/12/08 16:53:14;;;;;;;14.18;10.13;;;;;;;7.30;77.72;98640.69;10256821;28;20085;-61
2021/12/08 16:58:16;;;;;;;;;;;;;;;7.20;77.61;98640.69;10249241;28;20055;-61
2021/12/08 17:03:19;;;;;;;17.27;14.60;;;;;;;7.17;78.01;98648.91;10257522;28;19929;-61
2021/12/08 17:08:22;;;;;;;16.23;12.10;;;;;;;7.10;78.78;98666.31;10248637;28;20291;-61
2021/12/08 17:13:24;;;;;;;23.65;21.17;;;;;;;7.04;78.83;98657.13;10249740;28;20054;-61
2021/12/08 17:18:25;;;;;;;24.77;22.13;;;;;;;6.90;78.70;98655.72;10256890;28;20149;-61
2021/12/08 17:23:28;;;;;;;30.60;26.13;;;;;;;6.95;78.82;98673.81;10257239;28;20051;-61
2021/12/08 17:28:30;;;;;;;14.80;11.23;;;;;;;6.99;78.75;98685.81;10250909;28;20521;-61
2021/12/08 17:33:33;;;;;;;14.57;11.98;;;;;;;7.00;78.26;98688.31;10256999;28;20046;-61
2021/12/08 17:38:35;;;;;;;24.00;21.73;;;;;;;6.85;78.46;98665.91;10253017;28;20525;-61
2021/12/08 17:43:39;;;;;;;9.00;7.18;;;;;;;6.81;78.03;98688.31;10254855;28;20486;-61
2021/12/08 17:49:02;;;;;;;12.40;11.15;;;;;;;6.71;77.94;98702.34;10263279;28;20055;-61
2021/12/08 17:54:06;;;;;;;24.27;21.70;;;;;;;6.69;77.69;98712.22;10258368;28;20491;-61
2021/12/08 17:59:09;;;;;;;19.15;17.38;;;;;;;6.75;78.02;98710.00;10251598;28;20080;-60
2021/12/08 18:04:12;;;;;;;10.13;9.07;;;;;;;6.75;77.76;98720.59;10254549;28;20434;-60
2021/12/08 18:09:16;;;;;;;9.27;8.23;;;;;;;6.70;77.32;98716.53;10250473;28;20130;-60
2021/12/08 18:14:18;;;;;;;9.37;8.20;;;;;;;6.66;77.49;98717.78;10249208;28;20050;-62
2021/12/08 18:19:19;;;;;;;10.38;9.38;;;;;;;6.66;77.40;98720.44;10255683;28;20065;-61
2021/12/08 18:24:21;;;;;;;11.35;7.85;;;;;;;6.58;77.75;98716.81;10249486;28;20047;-59
2021/12/08 18:29:22;;;;;;;7.60;6.85;;;;;;;6.58;77.52;98715.00;10253985;28;20607;-58
2021/12/08 18:34:39;;;;;;;8.85;7.38;;;;;;;6.66;77.66;98720.44;10255978;28;20039;-59
2021/12/08 18:39:41;;;;;;;35.55;25.35;;;;;;;6.66;77.65;98730.19;10247806;28;20064;-59
2021/12/08 18:44:47;;;;;;;14.70;11.38;;;;;;;6.72;77.73;98730.47;10248176;28;20058;-59
2021/12/08 18:49:49;;;;;;;10.90;8.30;;;;;;;6.80;76.96;98724.50;10251558;28;20549;-59
2021/12/08 18:54:50;;;;;;;16.42;12.57;;;;;;;6.79;76.89;98724.66;10250785;28;20145;-60
2021/12/08 18:59:53;;;;;;;12.90;9.75;;;;;;;6.84;77.05;98736.47;10252858;28;20677;-62
2021/12/08 19:04:55;;;;;;;8.90;7.95;;;;;;;6.87;76.43;98730.91;10248839;28;20053;-60
2021/12/08 19:09:57;;;;;;;8.85;7.45;;;;;;;6.91;76.89;98731.47;10245850;28;20703;-60
2021/12/08 19:14:58;;;;;;;10.50;7.93;;;;;;;6.76;76.69;98717.00;10250318;28;20042;-61
2021/12/08 19:20:00;;;;;;;10.07;8.77;;;;;;;6.69;76.94;98743.94;10254093;28;20059;-60
2021/12/08 19:25:04;;;;;;;11.20;9.05;;;;;;;6.68;76.95;98742.31;10251902;28;20393;-60
2021/12/08 19:30:07;;;;;;;9.88;8.48;;;;;;;6.75;76.86;98726.72;10252540;28;20057;-60
2021/12/08 19:35:09;;;;;;;10.45;9.02;;;;;;;6.71;77.14;98728.81;10252829;28;20053;-60
2021/12/08 19:40:15;;;;;;;11.15;9.65;;;;;;;6.73;76.83;98724.19;10252301;28;20891;-60
2021/12/08 19:45:23;;;;;;;10.23;9.23;;;;;;;6.84;76.33;98735.63;10252575;28;20178;-60
2021/12/08 19:50:29;;;;;;;11.48;9.95;;;;;;;6.85;76.37;98737.31;10247850;28;20043;-60
2021/12/08 19:55:30;;;;;;;12.43;10.65;;;;;;;6.84;76.26;98740.94;10258110;28;20137;-59
2021/12/08 20:00:35;;;;;;;10.98;9.82;;;;;;;6.81;76.09;98746.50;10254367;28;20057;-62
2021/12/08 20:05:38;;;;;;;13.10;10.05;;;;;;;6.80;76.51;98747.47;10258334;28;20525;-62
2021/12/08 20:10:41;;;;;;;10.35;9.35;;;;;;;6.81;76.71;98749.13;10261214;28;20105;-63
2021/12/08 20:15:44;;;;;;;14.32;10.80;;;;;;;6.77;76.77;98751.22;10260093;28;20058;-62
2021/12/08 20:20:51;;;;;;;11.27;8.73;;;;;;;6.65;76.85;98742.56;10286989;28;20047;-62
2021/12/08 20:25:53;;;;;;;13.55;10.45;;;;;;;6.66;76.85;98732.81;10265501;28;20054;-62
2021/12/08 20:30:54;;;;;;;11.02;9.73;;;;;;;6.57;76.77;98737.09;10257838;28;20196;-61
2021/12/08 20:35:55;;;;;;;12.35;9.50;;;;;;;6.62;77.13;98745.50;10257027;28;20050;-61
2021/12/08 20:40:57;;;;;;;13.32;11.93;;;;;;;6.67;77.21;98745.06;10248895;28;20137;-62
2021/12/08 20:45:59;;;;;;;13.32;11.93;;;;;;;6.65;76.60;98749.66;10261698;28;20059;-60
2021/12/08 20:51:03;;;;;;;15.82;11.70;;;;;;;6.59;76.98;98753.69;10263415;28;20154;-60
2021/12/08 20:56:04;;;;;;;13.55;11.30;;;;;;;6.50;77.36;98757.13;10252201;28;20059;-62
2021/12/08 21:01:11;;;;;;;15.63;13.48;;;;;;;6.50;77.44;98759.75;10258966;28;20050;-60
2021/12/08 21:06:13;;;;;;;13.65;11.88;;;;;;;6.61;76.74;98772.06;10259053;28;20055;-62
2021/12/08 21:11:14;;;;;;;13.02;11.00;;;;;;;6.50;76.53;98765.03;10258007;28;20042;-61
2021/12/08 21:16:17;;;;;;;12.63;11.32;;;;;;;6.54;76.73;98763.81;10258313;28;20129;-61
2021/12/08 21:21:19;;;;;;;14.38;12.20;;;;;;;6.58;76.82;98778.44;10258887;28;20068;-61
2021/12/08 21:26:21;;;;;;;12.43;11.13;;;;;;;6.51;76.38;98777.31;10258440;28;20047;-61
2021/12/08 21:31:23;;;;;;;13.15;11.55;;;;;;;6.50;76.90;98794.13;10251724;28;20046;-61
2021/12/08 21:36:27;;;;;;;12.73;11.32;;;;;;;6.46;77.27;98795.38;10252920;28;20061;-61
2021/12/08 21:41:28;;;;;;;14.30;10.82;;;;;;;6.45;77.41;98799.00;10257354;28;20139;-62
2021/12/08 21:46:30;;;;;;;12.48;11.02;;;;;;;6.47;77.25;98811.13;10258026;28;20486;-61
2021/12/08 21:51:33;;;;;;;14.70;11.88;;;;;;;6.47;76.84;98804.97;10256434;28;20061;-59
2021/12/08 21:56:35;;;;;;;12.82;11.50;;;;;;;6.50;77.22;98804.69;10264924;28;20046;-60
2021/12/08 22:01:36;;;;;;;15.95;12.13;;;;;;;6.58;76.44;98807.53;10262251;28;20038;-59
2021/12/08 22:06:37;;;;;;;17.45;13.27;;;;;;;6.50;77.31;98807.34;10256164;28;20057;-60
2021/12/08 22:11:39;;;;;;;13.20;11.80;;;;;;;6.51;77.03;98799.28;10250011;28;20050;-59
2021/12/08 22:16:40;;;;;;;13.82;12.13;;;;;;;6.50;76.67;98818.78;10252999;28;20096;-60
2021/12/08 22:21:42;;;;;;;14.38;12.35;;;;;;;6.44;76.70;98814.03;10253185;28;20310;-62
2021/12/08 22:26:43;;;;;;;12.30;10.93;;;;;;;6.49;76.45;98826.84;10268867;28;20534;-60
2021/12/08 22:31:45;;;;;;;13.95;12.18;;;;;;;6.46;76.93;98821.81;10274863;28;20202;-60
2021/12/08 22:36:46;;;;;;;13.13;10.63;;;;;;;6.41;77.23;98831.94;10270551;28;20060;-61
2021/12/08 22:41:48;;;;;;;13.93;12.43;;;;;;;6.31;77.13;98835.38;10262485;28;20165;-61
2021/12/08 22:46:49;;;;;;;14.48;12.88;;;;;;;6.26;77.09;98848.16;10253283;28;20574;-61
2021/12/08 22:51:51;;;;;;;13.98;12.43;;;;;;;6.29;77.00;98845.25;10270024;28;20071;-62
2021/12/08 22:56:52;;;;;;;12.63;11.40;;;;;;;6.23;77.09;98848.41;10270069;28;20065;-60
2021/12/08 23:01:53;;;;;;;13.20;10.68;;;;;;;6.29;77.67;98850.53;10253335;28;20134;-61
2021/12/08 23:06:55;;;;;;;14.82;13.25;;;;;;;6.16;77.61;98847.25;10269393;28;20130;-62
2021/12/08 23:11:56;;;;;;;15.68;13.25;;;;;;;6.18;77.99;98838.25;10271514;28;20058;-61
2021/12/08 23:16:59;;;;;;;14.32;12.65;;;;;;;6.19;77.96;98844.34;10269832;28;20097;-60
2021/12/08 23:22:01;;;;;;;17.15;13.35;;;;;;;6.30;78.45;98848.72;10267721;28;20069;-61
2021/12/08 23:27:02;;;;;;;21.38;14.77;;;;;;;6.25;79.08;98859.69;10268751;28;20146;-61
2021/12/08 23:32:04;;;;;;;24.60;15.82;;;;;;;6.23;79.65;98852.84;10267843;28;20142;-60
2021/12/08 23:37:06;;;;;;;20.17;14.95;;;;;;;6.16;80.08;98847.25;10266259;28;20051;-61
2021/12/08 23:42:10;;;;;;;19.33;15.27;;;;;;;6.10;80.32;98834.56;10268918;28;20138;-62
2021/12/08 23:47:12;;;;;;;19.50;14.57;;;;;;;6.19;80.36;98853.09;10248019;28;20054;-60
2021/12/08 23:52:13;;;;;;;22.20;15.40;;;;;;;6.22;80.72;98857.31;10267295;28;20298;-61
2021/12/08 23:57:15;;;;;;;25.88;17.42;;;;;;;6.27;81.33;98859.53;10268474;28;20081;-61
